deformed-offering

Current conditions - KSJC (San Jose International)


Coded METAR: 2018/01/20 11:53 KSJC 201153Z AUTO 00000KT 10SM CLR 06/04 A3012 RMK AO2 SLP198 T00610039 10089 20061 50004

Weather Report

Report issued: Sat 20th Jan at 03:53 PST

Wind: calm 0 knots (0 mph, 0 kph, Force 0)
Visibility: 10 statute miles
Cloud: Sky clear
Temperature: 43F / 6C
Dewpoint: 39F / 4C
Humidity: 87%
Pressure: 30.12 inches of mercury

Current conditions - KNUQ (Moffett NAS)


Coded METAR: 2018/01/20 11:56 KNUQ 201156Z 00000KT 10SM CLR 04/04 A3013 RMK AO2 SLP204 T00440039 10072 20044 50004

Weather Report

Report issued: Sat 20th Jan at 03:56 PST

Wind: calm 0 knots (0 mph, 0 kph, Force 0)
Visibility: 10 statute miles
Cloud: Sky clear
Temperature: 39F / 4C
Dewpoint: 39F / 4C
Humidity: 100%
Pressure: 30.13 inches of mercury

Current conditions - KRHV (Reid-Hillview Airport - San Jose)


Coded METAR: 2018/01/20 05:47 KRHV 200547Z 00000KT 10SM FEW030 08/05 A3009

Weather Report

Report issued: Sat 20th Jan at 21:47 PST

Wind: calm 0 knots (0 mph, 0 kph, Force 0)
Visibility: 10 statute miles
Cloud: a few clouds at 3000 feet
Temperature: 46F / 8C
Dewpoint: 41F / 5C
Humidity: 81%
Pressure: 30.09 inches of mercury

Current conditions - KPAO (Palo Alto Airport)


Coded METAR: 2018/01/20 04:47 KPAO 200447Z 28008KT 10SM SKC 10/06 A3010 RMK LAST

Weather Report

Report issued: Sat 20th Jan at 20:47 PST

Wind: gentle breeze from the West (280 degrees) at 8 knots (9 mph, 15 kph, Force 3)
Visibility: 10 statute miles
Cloud: Sky clear
Temperature: 50F / 10C
Dewpoint: 43F / 6C
Humidity: 76%
Pressure: 30.10 inches of mercury

 

deformed-offering